Time;durP1;ratioP1;P1;durP2;ratioP2;P2;SDS_P1;SDS_P2;PMS_P1;PMS_P2;Temp;Humidity;BMP_temperature;BMP_pressure;BME280_temperature;BME280_humidity;BME280_pressure;Samples;Min_cycle;Max_cycle;Signal;HPM_P1;HPM_P2
2022/04/18 00:03:29;;;;;;;;;;;4.40;99.90;;;3.24;71.08;95928.06;10431160;28;1502;-73
2022/04/18 00:08:32;;;;;;;;;;;4.30;99.90;;;3.19;71.12;95930.59;10430872;28;1499;-71
2022/04/18 00:13:36;;;;;;;;;;;4.30;99.90;;;3.24;71.43;95933.38;10423913;28;1914;-71
2022/04/18 00:18:39;;;;;;;;;;;4.30;99.90;;;3.22;72.00;95924.81;10423528;28;1549;-73
2022/04/18 00:23:43;;;;;;;;;;;4.50;99.90;;;3.05;74.65;95917.66;10425965;28;1571;-72
2022/04/18 00:28:46;;;;;;;;;;;4.10;99.90;;;2.94;74.74;95905.97;10440653;28;1599;-72
2022/04/18 00:33:50;;;;;;;;;;;4.10;99.90;;;2.81;75.11;95903.47;10400474;28;2035;-72
2022/04/18 00:38:53;;;;;;;;;;;4.00;99.90;;;2.94;74.61;95903.31;10442308;28;2033;-72
2022/04/18 00:43:57;;;;;;;;;;;3.90;99.90;;;2.92;74.02;95902.69;10437357;28;1862;-72
2022/04/18 00:49:00;;;;;;;;;;;4.00;99.90;;;2.77;74.30;95899.63;10448483;28;1961;-70
2022/04/18 00:54:03;;;;;;;;;;;3.90;99.90;;;2.90;73.82;95896.81;10442467;28;1914;-71
2022/04/18 00:59:07;;;;;;;;;;;3.90;99.90;;;2.86;73.39;95899.13;10427860;28;1923;-72
2022/04/18 01:04:10;;;;;;;;;;;3.90;99.90;;;2.79;73.42;95893.03;10411851;28;1835;-73
2022/04/18 01:09:13;;;;;;;;;;;;;;;2.64;74.26;95890.75;10440309;28;1969;-73
2022/04/18 01:14:24;;;;;;;;;;;;;;;2.64;74.16;95876.69;10421525;28;1939;-70
2022/04/18 01:19:30;;;;;;;;;;;;;;;2.64;74.40;95876.69;10440662;28;2464;-72
2022/04/18 01:30:15;;;;;;;;;;;;;;;2.43;75.83;95867.31;10423346;28;1957;-71
2022/04/18 01:35:18;;;;;;;;;;;;;;;2.48;75.45;95864.78;10431006;28;1925;-72
2022/04/18 01:40:22;;;;;;;;;;;;;;;2.44;75.89;95858.31;10426180;22;3668;-70
2022/04/18 01:45:25;;;;;;;;;;;;;;;2.32;76.28;95852.13;10374083;28;1905;-68
2022/04/18 01:50:29;;;;;;;;;;;;;;;2.14;77.38;95856.38;10380105;28;1939;-69
2022/04/18 01:55:33;;;;;;;;;;;;;;;2.09;77.42;95848.25;10394964;28;2015;-68
2022/04/18 02:00:37;;;;;;;;;;;;;;;2.09;77.57;95845.59;10371029;28;1940;-70
2022/04/18 02:05:40;;;;;;;;;;;;;;;2.16;77.81;95846.38;10375751;28;1771;-68
2022/04/18 02:10:44;;;;;;;;;;;;;;;2.07;78.66;95839.72;10395368;28;1981;-69
2022/04/18 02:15:48;;;;;;;;;;;;;;;1.95;79.62;95828.19;10394348;28;1751;-69
2022/04/18 02:20:51;;;;;;;;;;;;;;;2.03;79.25;95829.75;10394020;28;1848;-70
2022/04/18 02:25:56;;;;;;;;;;;;;;;1.93;80.19;95819.66;10399209;28;1692;-68
2022/04/18 02:31:00;;;;;;;;;;;;;;;1.97;79.62;95818.16;10376058;28;1910;-70
2022/04/18 02:36:04;;;;;;;;;;;;;;;2.05;79.30;95817.91;10387142;28;2121;-69
2022/04/18 02:41:07;;;;;;;;;;;;;;;2.05;78.71;95812.59;10399597;28;2307;-69
2022/04/18 02:46:11;;;;;;;;;;;;;;;2.00;78.99;95807.16;10378474;28;1728;-68
2022/04/18 02:51:17;;;;;;;;;;;;;;;1.93;79.34;95798.44;10397642;28;2018;-68
2022/04/18 02:56:21;;;;;;;;;;;;;;;1.80;80.43;95794.09;10381800;28;1895;-69
2022/04/18 03:01:26;;;;;;;;;;;;;;;1.70;80.40;95798.25;10393857;28;1488;-69
2022/04/18 03:06:29;;;;;;;;;;;;;;;1.67;80.57;95793.41;10393823;28;1689;-69
2022/04/18 03:11:33;;;;;;;;;;;;;;;1.59;82.22;95787.34;10394723;28;1973;-70
2022/04/18 03:16:37;;;;;;;;;;;;;;;1.70;81.31;95772.56;10380485;28;1554;-70
2022/04/18 03:21:40;;;;;;;;;;;;;;;1.57;82.08;95778.78;10369569;28;1714;-69
2022/04/18 03:26:45;;;;;;;;;;;;;;;1.58;82.72;95769.00;10382512;28;1981;-68
2022/04/18 03:31:49;;;;;;;;;;;;;;;1.61;81.96;95766.72;10388596;28;1992;-71
2022/04/18 03:42:14;;;;;;;;;;;;;;;1.46;82.47;95754.81;10390915;28;1552;-69
2022/04/18 03:47:19;;;;;;;;;;;;;;;1.42;83.09;95757.13;10401497;28;1552;-69
2022/04/18 03:52:23;;;;;;;;;;;;;;;1.35;83.67;95748.41;10393837;28;1910;-69
2022/04/18 03:57:27;;;;;;;;;;;;;;;1.35;83.31;95753.72;10377003;28;1675;-69
2022/04/18 04:02:31;;;;;;;;;;;;;;;1.23;84.29;95758.09;10370028;28;1505;-68
2022/04/18 04:07:35;;;;;;;;;;;;;;;1.11;84.65;95757.97;10388642;28;1546;-69
2022/04/18 04:12:39;;;;;;;;;;;;;;;0.91;86.13;95762.59;10389868;28;1977;-68
2022/04/18 04:17:43;;;;;;;;;;;;;;;0.96;87.43;95758.28;10396716;28;1551;-69
2022/04/18 04:22:54;;;;;;;;;;;;;;;1.16;86.94;95758.13;10392201;28;2028;-69
2022/04/18 04:27:58;;;;;;;;;;;;;;;1.21;85.77;95755.66;10373321;28;1604;-69
2022/04/18 04:33:02;;;;;;;;;;;;;;;1.35;84.97;95748.41;10392384;28;2006;-70
2022/04/18 04:38:06;;;;;;;;;;;;;;;1.49;84.07;95749.13;10377917;28;1473;-70
2022/04/18 04:43:10;;;;;;;;;;;;;;;1.58;83.10;95751.25;10389193;28;1465;-68
2022/04/18 04:48:13;;;;;;;;;;;;;;;1.73;81.51;95750.94;10393716;28;1540;-70
2022/04/18 04:53:18;;;;;;;;;;;;;;;1.82;81.12;95748.81;10389856;28;1918;-70
2022/04/18 04:58:21;;;;;;;;;;;;;;;2.05;79.99;95748.97;10376435;28;1623;-71
2022/04/18 05:03:26;;;;;;;;;;;;;;;2.37;77.15;95746.97;10383656;28;1457;-68
2022/04/18 05:08:29;;;;;;;;;;;;;;;2.49;76.42;95746.22;10368418;28;1505;-71
2022/04/18 05:13:33;;;;;;;;;;;;;;;2.83;75.41;95748.22;10374270;28;1894;-69
2022/04/18 05:18:37;;;;;;;;;;;;;;;3.52;71.85;95743.28;10402935;28;1666;-69
2022/04/18 05:23:41;;;;;;;;;;;;;;;3.85;69.08;95747.22;10376278;28;1567;-70
2022/04/18 05:28:45;;;;;;;;;;;;;;;3.52;68.48;95744.09;10390659;28;1520;-68
2022/04/18 05:33:49;;;;;;;;;;;;;;;4.39;67.06;95758.50;10373566;28;2287;-71
2022/04/18 05:38:53;;;;;;;;;;;;;;;4.03;66.76;95768.41;10394106;28;1564;-70
2022/04/18 05:43:57;;;;;;;;;;;;;;;4.12;66.64;95764.31;10373972;28;1673;-68
2022/04/18 05:49:01;;;;;;;;;;;;;;;3.97;66.14;95761.34;10368995;28;1535;-70
2022/04/18 05:54:04;;;;;;;;;;;;;;;3.98;66.15;95765.63;10391813;28;1935;-68
2022/04/18 05:59:08;;;;;;;;;;;;;;;4.40;65.59;95760.13;10373010;28;1578;-70
2022/04/18 06:04:18;;;;;;;;;;;;;;;4.21;65.35;95762.94;10369029;28;1577;-71
2022/04/18 06:09:22;;;;;;;;;;;;;;;3.97;66.05;95762.16;10389487;28;1557;-69
2022/04/18 06:14:26;;;;;;;;;;;;;;;4.37;66.03;95760.59;10370099;28;1922;-70
2022/04/18 06:19:30;;;;;;;;;;;;;;;4.48;65.38;95755.25;10380333;28;1507;-71
2022/04/18 06:24:34;;;;;;;;;;;;;;;5.14;63.06;95750.34;10393755;28;1889;-70
2022/04/18 06:29:38;;;;;;;;;;;;;;;5.39;59.57;95745.47;10374281;28;1459;-70
2022/04/18 06:34:42;;;;;;;;;;;;;;;5.59;58.76;95750.31;10389049;28;1930;-67
2022/04/18 06:39:45;;;;;;;;;;;;;;;5.90;56.80;95748.13;10370501;28;1531;-70
2022/04/18 06:44:49;;;;;;;;;;;;;;;5.75;57.56;95738.03;10391618;28;1454;-70
2022/04/18 06:49:53;;;;;;;;;;;;;;;6.17;57.02;95742.91;10394424;28;1572;-68
2022/04/18 06:54:57;;;;;;;;;;;;;;;6.43;55.55;95736.09;10380665;28;1950;-70
2022/04/18 07:00:01;;;;;;;;;;;;;;;6.84;52.87;95741.88;10387390;28;1535;-69
2022/04/18 07:05:05;;;;;;;;;;;;;;;6.50;54.00;95748.19;10381918;28;1973;-70
2022/04/18 07:10:09;;;;;;;;;;;;;;;6.85;53.41;95736.28;10410837;28;1484;-71
2022/04/18 07:15:12;;;;;;;;;;;;;;;7.00;52.22;95735.66;10393637;28;1910;-71
2022/04/18 07:20:17;;;;;;;;;;;;;;;7.18;50.27;95737.97;10393747;28;1496;-70
2022/04/18 07:25:20;;;;;;;;;;;8.20;99.90;;;7.67;49.48;95747.75;10382412;28;2005;-70
2022/04/18 07:30:22;;;;;;;;;;;8.20;99.90;;;7.43;50.06;95740.06;10400940;28;1605;-69
2022/04/18 07:35:26;;;;;;;;;;;8.40;99.90;;;7.63;49.05;95749.31;10380841;28;1989;-70
2022/04/18 07:40:29;;;;;;;;;;;8.50;99.90;;;7.98;48.24;95741.56;10404285;22;1985;-72
2022/04/18 07:45:32;;;;;;;;;;;;;;;8.24;47.08;95744.41;10400886;28;2106;-72
2022/04/18 07:55:56;;;;;;;;;;;9.30;99.90;;;8.84;44.46;95740.41;10395233;28;1514;-73
2022/04/18 08:00:59;;;;;;;;;;;9.60;99.90;;;8.75;44.61;95739.31;10389056;28;1906;-72
2022/04/18 08:06:02;;;;;;;;;;;9.70;99.90;;;8.99;42.94;95740.47;10396879;28;1468;-73
2022/04/18 08:11:07;;;;;;;;;;;9.90;99.90;;;8.95;43.09;95750.09;10397908;28;1977;-72
2022/04/18 08:16:10;;;;;;;;;;;9.90;99.90;;;9.06;43.02;95750.94;10383644;28;1510;-73
2022/04/18 08:21:15;;;;;;;;;;;9.80;99.90;;;9.51;41.30;95741.38;10392079;28;1837;-72
2022/04/18 08:26:21;;;;;;;;;;;10.00;99.90;;;9.21;40.81;95742.91;10384190;28;1461;-72
2022/04/18 08:31:25;;;;;;;;;;;;;;;9.48;41.07;95737.34;10382270;28;1914;-72
2022/04/18 08:36:28;;;;;;;;;;;10.20;99.90;;;9.50;39.91;95743.25;10393493;28;1575;-72
2022/04/18 08:41:32;;;;;;;;;;;10.30;99.90;;;9.86;40.27;95737.88;10396444;28;1492;-73
2022/04/18 08:46:35;;;;;;;;;;;10.70;99.90;;;9.67;39.94;95740.28;10373902;28;1555;-71
2022/04/18 08:56:59;;;;;;;;;;;10.80;99.90;;;10.10;37.59;95722.81;10381623;28;1946;-72
2022/04/18 09:02:02;;;;;;;;;;;10.90;99.90;;;10.36;37.59;95725.47;10397580;28;1475;-72
2022/04/18 09:07:06;;;;;;;;;;;11.20;99.90;;;10.11;36.28;95740.53;10398992;28;1493;-73
2022/04/18 09:12:09;;;;;;;;;;;11.10;99.90;;;9.78;37.85;95741.09;10381638;28;1967;-72
2022/04/18 09:17:12;;;;;;;;;;;10.80;99.90;;;10.08;36.85;95724.97;10382000;28;1928;-73
2022/04/18 09:22:18;;;;;;;;;;;10.70;99.90;;;10.08;38.08;95718.78;10381599;28;1901;-72
2022/04/18 09:27:21;;;;;;;;;;;11.00;99.90;;;9.79;40.14;95716.66;10385496;28;1494;-71
2022/04/18 09:32:24;;;;;;;;;;;10.80;99.90;;;10.53;39.10;95704.44;10394723;28;1987;-71
2022/04/18 09:37:27;;;;;;;;;;;11.10;99.90;;;10.00;39.61;95701.34;10385689;28;1612;-71
2022/04/18 09:42:30;;;;;;;;;;;11.00;99.90;;;9.95;38.73;95698.66;10384781;28;1481;-72
2022/04/18 09:47:34;;;;;;;;;;;10.90;99.90;;;9.97;38.92;95704.56;10412779;28;1580;-73
2022/04/18 09:52:37;;;;;;;;;;;10.90;99.90;;;10.05;38.28;95704.00;10377310;28;1910;-72
2022/04/18 09:57:40;;;;;;;;;;;11.10;99.90;;;9.84;39.50;95702.44;10400636;28;1563;-73
2022/04/18 10:02:43;;;;;;;;;;;10.90;99.90;;;10.51;38.05;95691.28;10375539;28;1506;-73
2022/04/18 10:07:47;;;;;;;;;;;11.20;99.90;;;10.26;37.87;95699.44;10386422;28;1447;-72
2022/04/18 10:12:50;;;;;;;;;;;11.20;99.90;;;10.12;37.79;95690.31;10380167;28;2012;-71
2022/04/18 10:17:53;;;;;;;;;;;11.20;99.90;;;10.44;37.18;95689.97;10398206;28;1539;-73
2022/04/18 10:22:56;;;;;;;;;;;11.30;99.90;;;10.52;36.77;95689.41;10397242;28;1907;-72
2022/04/18 10:28:00;;;;;;;;;;;11.50;99.90;;;10.61;34.73;95686.94;10384094;28;1553;-73
2022/04/18 10:33:04;;;;;;;;;;;11.50;99.90;;;10.38;34.49;95673.06;10393568;28;1934;-74
2022/04/18 10:38:08;;;;;;;;;;;;;;;10.27;33.96;95674.19;10382037;28;1558;-73
2022/04/18 10:43:12;;;;;;;;;;;;;;;10.55;34.84;95661.97;10397709;28;1527;-73
2022/04/18 10:48:16;;;;;;;;;;;;;;;10.55;34.14;95667.34;10380506;28;1553;-71
2022/04/18 10:53:20;;;;;;;;;;;;;;;10.81;33.34;95655.41;10395673;28;1922;-72
2022/04/18 10:58:24;;;;;;;;;;;;;;;10.73;33.98;95653.28;10379828;28;1622;-72
2022/04/18 11:03:27;;;;;;;;;;;11.50;99.90;;;10.65;34.70;95639.63;10387213;28;1562;-73
2022/04/18 11:08:31;;;;;;;;;;;;;;;10.82;33.78;95642.75;10380591;28;1486;-73
2022/04/18 11:13:34;;;;;;;;;;;;;;;10.94;34.05;95655.84;10395236;28;1902;-73
2022/04/18 11:18:38;;;;;;;;;;;;;;;10.75;34.86;95643.06;10402702;28;1528;-71
2022/04/18 11:23:41;;;;;;;;;;;;;;;10.73;34.65;95637.16;10389381;28;1664;-72
2022/04/18 11:28:45;;;;;;;;;;;;;;;10.54;33.84;95636.97;10379763;28;1490;-72
2022/04/18 11:33:49;;;;;;;;;;;;;;;11.06;32.58;95630.22;10371284;28;1914;-73
2022/04/18 11:38:52;;;;;;;;;;;;;;;10.77;32.72;95624.78;10421264;28;1492;-72
2022/04/18 11:43:56;;;;;;;;;;;;;;;10.73;31.36;95618.34;10399761;28;1577;-72
2022/04/18 11:49:00;;;;;;;;;;;;;;;10.69;31.46;95628.06;10381916;28;1773;-73
2022/04/18 11:54:04;;;;;;;;;;;;;;;10.92;30.83;95617.69;10400642;28;1910;-73
2022/04/18 11:59:07;;;;;;;;;;;;;;;10.82;31.30;95608.59;10395216;28;1567;-73
2022/04/18 12:09:32;;;;;;;;;;;;;;;11.04;30.17;95599.31;10388018;28;1496;-71
2022/04/18 12:14:38;;;;;;;;;;;;;;;11.43;30.63;95595.75;10379063;28;1922;-73
2022/04/18 12:19:42;;;;;;;;;;;;;;;11.32;29.03;95581.59;10395745;28;1488;-72
2022/04/18 12:24:46;;;;;;;;;;;;;;;11.49;28.71;95575.78;10378389;28;1629;-72
2022/04/18 12:29:49;;;;;;;;;;;;;;;11.43;30.11;95577.72;10380754;28;1547;-72
2022/04/18 12:34:53;;;;;;;;;;;;;;;11.65;29.77;95569.19;10399838;28;1985;-72
2022/04/18 12:39:57;;;;;;;;;;;;;;;11.81;29.05;95556.38;10405228;28;1421;-72
2022/04/18 12:45:01;;;;;;;;;;;;;;;11.94;30.08;95561.06;10384214;28;1875;-72
2022/04/18 12:50:05;;;;;;;;;;;;;;;11.87;31.13;95566.00;10388585;28;2100;-75
2022/04/18 12:55:09;;;;;;;;;;;;;;;11.99;31.60;95552.13;10394772;28;1918;-72
2022/04/18 13:00:14;;;;;;;;;;;;;;;11.88;29.78;95554.94;10416191;28;1469;-73
2022/04/18 13:05:18;;;;;;;;;;;;;;;12.03;29.42;95545.09;10381575;28;1494;-73
2022/04/18 13:10:21;;;;;;;;;;;;;;;12.26;30.03;95535.34;10379672;28;1477;-71
2022/04/18 13:15:25;;;;;;;;;;;;;;;12.39;31.08;95530.06;10381258;28;1902;-72
2022/04/18 13:20:29;;;;;;;;;;;;;;;12.18;30.77;95523.34;10383854;28;1528;-73
2022/04/18 13:25:32;;;;;;;;;;;;;;;11.75;31.45;95531.34;10402006;28;1622;-71
2022/04/18 13:30:36;;;;;;;;;;;;;;;11.99;31.80;95509.03;10396539;28;1457;-72
2022/04/18 13:40:58;;;;;;;;;;;;;;;11.92;32.35;95505.91;10375337;28;1604;-73
2022/04/18 13:46:03;;;;;;;;;;;;;;;11.99;32.61;95499.06;10428947;22;2003;-73
2022/04/18 13:51:07;;;;;;;;;;;;;;;12.15;32.52;95487.00;10477534;28;1539;-71
2022/04/18 13:56:10;;;;;;;;;;;;;;;12.14;32.27;95481.88;10441881;28;1910;-71
2022/04/18 14:01:14;;;;;;;;;;;;;;;12.25;32.90;95474.47;10431065;28;1559;-72
2022/04/18 14:06:18;;;;;;;;;;;;;;;12.15;32.74;95472.72;10441523;28;1503;-71
2022/04/18 14:11:22;;;;;;;;;;;;;;;12.11;32.35;95471.72;10435059;28;1559;-72
2022/04/18 14:21:48;;;;;;;;;;;;;;;12.75;32.81;95455.94;10443200;28;1531;-73
2022/04/18 14:26:52;;;;;;;;;;;;;;;12.43;33.78;95455.59;10439029;28;1500;-73
2022/04/18 14:31:56;;;;;;;;;;;;;;;12.31;33.20;95457.94;10414663;28;1548;-73
2022/04/18 14:37:00;;;;;;;;;;;;;;;12.41;33.81;95457.81;10422233;28;1989;-73
2022/04/18 14:42:04;;;;;;;;;;;;;;;12.47;33.53;95449.63;10442327;28;1910;-72
2022/04/18 14:47:08;;;;;;;;;;;;;;;12.30;33.59;95448.25;10425760;28;1547;-71
2022/04/18 14:52:12;;;;;;;;;;;;;;;12.31;33.05;95447.16;10438410;28;1450;-71
2022/04/18 14:57:16;;;;;;;;;;;;;;;12.31;32.71;95443.66;10423313;28;1918;-73
2022/04/18 15:02:20;;;;;;;;;;;;;;;12.44;32.90;95451.81;10416939;28;1567;-75
2022/04/18 15:07:24;;;;;;;;;;;;;;;12.34;33.06;95438.50;10444766;28;1472;-73
2022/04/18 15:12:28;;;;;;;;;;;;;;;12.53;32.08;95434.97;10415390;28;1501;-74
2022/04/18 15:17:32;;;;;;;;;;;;;;;12.62;32.68;95425.13;10440716;28;1918;-73
2022/04/18 15:22:36;;;;;;;;;;;;;;;12.48;32.91;95435.06;10418840;28;1487;-72
2022/04/18 15:27:39;;;;;;;;;;;;;;;12.31;33.34;95425.59;10422377;28;1520;-73
2022/04/18 15:32:42;;;;;;;;;;;;;;;12.23;33.14;95430.84;10434392;28;1472;-72
2022/04/18 15:37:48;;;;;;;;;;;;;;;12.21;33.75;95425.75;10422682;28;1929;-74
2022/04/18 15:42:53;;;;;;;;;;;;;;;11.94;34.35;95425.59;10438470;28;1448;-71
2022/04/18 15:47:56;;;;;;;;;;;;;;;11.83;34.96;95420.38;10426666;28;1568;-72
2022/04/18 15:53:00;;;;;;;;;;;;;;;11.82;35.58;95424.13;10415553;28;1919;-71
2022/04/18 15:58:04;;;;;;;;;;;;;;;11.91;36.22;95427.00;10438146;28;1492;-74
2022/04/18 16:03:08;;;;;;;;;;;;;;;11.74;36.08;95427.44;10422034;28;1359;-74
2022/04/18 16:08:12;;;;;;;;;;;;;;;11.52;35.96;95441.44;10445241;28;1571;-72
2022/04/18 16:13:17;;;;;;;;;;;;;;;11.55;35.67;95434.69;10414964;28;1902;-72
2022/04/18 16:18:20;;;;;;;;;;;;;;;11.40;36.42;95432.19;10440004;28;1523;-75
2022/04/18 16:23:24;;;;;;;;;;;;;;;11.38;37.42;95427.84;10441390;28;1496;-74
2022/04/18 16:28:28;;;;;;;;;;;;;;;11.40;37.09;95426.78;10432255;28;1531;-71
2022/04/18 16:33:31;;;;;;;;;;;;;;;11.42;37.08;95425.41;10406771;28;1979;-72
2022/04/18 16:38:35;;;;;;;;;;;;;;;11.24;37.37;95431.53;10440849;28;1563;-72
2022/04/18 16:49:14;;;;;;;;;;;;;;;11.10;38.27;95439.47;10396710;28;1829;-71
2022/04/18 16:54:17;;;;;;;;;;;;;;;11.08;38.42;95425.53;10419281;28;1910;-74
2022/04/18 16:59:20;;;;;;;;;;;;;;;11.09;38.74;95422.53;10415574;28;2158;-74
2022/04/18 17:04:24;;;;;;;;;;;;;;;10.92;38.91;95424.84;10430353;28;1507;-72
2022/04/18 17:09:27;;;;;;;;;;;;;;;10.85;39.19;95424.41;10434802;28;1549;-72
2022/04/18 17:14:31;;;;;;;;;;;;;;;10.74;39.16;95421.00;10442066;28;1914;-72
2022/04/18 17:19:39;;;;;;;;;;;;;;;10.63;39.22;95430.25;10428614;28;1624;-71
2022/04/18 17:24:43;;;;;;;;;;;;;;;10.63;38.90;95430.25;10422982;28;1576;-70
2022/04/18 17:29:46;;;;;;;;;;;;;;;10.59;39.75;95426.50;10413647;28;1412;-71
2022/04/18 17:34:50;;;;;;;;;;;;;;;10.49;39.88;95430.06;10422600;28;1953;-72
2022/04/18 17:39:53;;;;;;;;;;;;;;;10.48;39.77;95427.66;10447474;28;1504;-73
2022/04/18 17:44:58;;;;;;;;;;;;;;;10.29;40.43;95425.66;10419819;28;1521;-72
2022/04/18 17:50:02;;;;;;;;;;;;;;;10.20;40.74;95421.94;10423074;28;1414;-73
2022/04/18 18:00:27;;;;;;;;;;;;;;;9.95;41.79;95430.16;10414424;28;1667;-74
2022/04/18 18:05:31;;;;;;;;;;;;;;;9.93;42.36;95427.75;10432920;28;1555;-73
2022/04/18 18:10:34;;;;;;;;;;;;;;;9.78;42.91;95435.06;10445677;28;1542;-71
2022/04/18 18:15:38;;;;;;;;;;;;;;;9.56;43.42;95433.59;10428831;28;1914;-71
2022/04/18 18:20:45;;;;;;;;;;;;;;;9.33;44.87;95434.19;10421221;28;1560;-73
2022/04/18 18:25:50;;;;;;;;;;;;;;;8.90;45.36;95437.25;10444427;28;1884;-73
2022/04/18 18:31:02;;;;;;;;;;;;;;;9.04;45.60;95442.88;10420616;28;1555;-71
2022/04/18 18:36:09;;;;;;;;;;;;;;;8.81;46.87;95454.16;10447531;28;1969;-72
2022/04/18 18:41:13;;;;;;;;;;;;;;;8.61;47.41;95460.34;10444031;28;1452;-73
2022/04/18 18:46:16;;;;;;;;;;;;;;;8.84;46.80;95464.31;10432010;28;1585;-72
2022/04/18 18:56:46;;;;;;;;;;;;;;;8.61;47.16;95458.47;10428247;28;1919;-75
2022/04/18 19:01:50;;;;;;;;;;;;;;;8.39;47.34;95469.44;10428367;28;1602;-73
2022/04/18 19:06:54;;;;;;;;;;;;;;;8.26;48.51;95477.16;10431904;28;1496;-72
2022/04/18 19:11:58;;;;;;;;;;;;;;;8.20;49.42;95484.38;10434586;28;1572;-72
2022/04/18 19:27:47;;;;;;;;;;;;;;;10.73;43.49;95478.53;10441206;28;1288;-71
2022/04/18 19:32:51;;;;;;;;;;;;;;;10.57;43.82;95474.38;10416495;28;1532;-71
2022/04/18 19:37:55;;;;;;;;;;;;;;;10.48;43.78;95471.47;10438682;28;1977;-72
2022/04/18 19:42:59;;;;;;;;;;;;;;;10.11;44.03;95471.13;10428857;28;1441;-74
2022/04/18 19:48:02;;;;;;;;;;;;;;;8.99;46.44;95461.66;10455104;22;3670;-69
2022/04/18 19:53:06;;;;;;;;;;;;;;;8.37;49.31;95465.41;10467484;28;1526;-70
2022/04/18 19:58:11;;;;;;;;;;;;;;;8.14;50.43;95461.34;10469748;28;1959;-70
2022/04/18 20:03:15;;;;;;;;;;;;;;;7.80;51.02;95469.03;10452649;28;1524;-72
2022/04/18 20:08:18;;;;;;;;;;;;;;;7.69;51.55;95467.38;10464029;28;1443;-71
2022/04/18 20:13:21;;;;;;;;;;;8.80;99.90;;;7.48;52.21;95461.16;10463656;28;1510;-70
2022/04/18 20:18:25;;;;;;;;;;;8.70;99.90;;;7.30;53.44;95467.75;10454702;28;1986;-69
2022/04/18 20:23:28;;;;;;;;;;;8.60;99.90;;;7.17;53.47;95465.56;10446247;28;1569;-69
2022/04/18 20:28:31;;;;;;;;;;;8.40;99.90;;;6.98;54.82;95463.31;10452923;28;1557;-71
2022/04/18 20:33:34;;;;;;;;;;;8.30;99.90;;;6.94;54.87;95464.91;10446852;28;1556;-68
2022/04/18 20:38:37;;;;;;;;;;;8.20;99.90;;;6.79;55.60;95464.78;10472563;28;1926;-70
2022/04/18 20:43:40;;;;;;;;;;;8.00;99.90;;;6.83;56.06;95455.19;10451586;28;1558;-70
2022/04/18 20:48:43;;;;;;;;;;;8.00;99.90;;;6.71;56.40;95459.94;10477258;28;1542;-69
2022/04/18 20:59:07;;;;;;;;;;;7.90;99.90;;;6.58;56.52;95457.69;10480078;28;1975;-70
2022/04/18 21:04:10;;;;;;;;;;;7.80;99.90;;;6.58;57.04;95453.16;10463964;28;1514;-70
2022/04/18 21:09:13;;;;;;;;;;;7.70;99.90;;;6.53;57.37;95452.31;10469824;28;1499;-70
2022/04/18 21:14:16;;;;;;;;;;;7.70;99.90;;;6.49;57.07;95444.81;10451343;28;2579;-70
2022/04/18 21:19:19;;;;;;;;;;;7.60;99.90;;;6.39;58.26;95447.41;10454182;28;1653;-70
2022/04/18 21:24:22;;;;;;;;;;;7.60;99.90;;;6.33;57.69;95443.09;10474139;28;1491;-69
2022/04/18 21:29:24;;;;;;;;;;;7.50;99.90;;;6.38;57.92;95435.13;10457795;28;1661;-69
2022/04/18 21:34:27;;;;;;;;;;;7.40;99.90;;;6.33;58.70;95432.41;10459881;28;1976;-70
2022/04/18 21:39:31;;;;;;;;;;;7.50;99.90;;;6.25;58.84;95430.22;10460812;28;1645;-70
2022/04/18 21:44:35;;;;;;;;;;;7.40;99.90;;;6.18;59.07;95424.28;10450428;28;1591;-71
2022/04/18 21:49:38;;;;;;;;;;;7.40;99.90;;;6.06;59.90;95418.31;10454370;28;1587;-69
2022/04/18 21:54:41;;;;;;;;;;;7.30;99.90;;;6.08;60.49;95416.19;10467818;28;1949;-69
2022/04/18 21:59:44;;;;;;;;;;;7.20;99.90;;;6.00;61.00;95419.31;10471512;28;1748;-68
2022/04/18 22:04:48;;;;;;;;;;;7.10;99.90;;;5.99;61.13;95410.50;10449211;28;1432;-71
2022/04/18 22:09:51;;;;;;;;;;;7.10;99.90;;;6.01;59.96;95402.25;10454856;28;1735;-71
2022/04/18 22:14:54;;;;;;;;;;;7.10;99.90;;;6.25;59.05;95400.06;10472781;28;1918;-69
2022/04/18 22:25:17;;;;;;;;;;;7.20;99.90;;;6.09;59.44;95393.78;10467850;28;1487;-69
2022/04/18 22:30:20;;;;;;;;;;;7.20;99.90;;;6.01;59.27;95391.56;10449505;28;1955;-70
2022/04/18 22:35:23;;;;;;;;;;;7.10;99.90;;;6.03;59.44;95389.44;10473534;28;1914;-69
2022/04/18 22:40:26;;;;;;;;;;;7.10;99.90;;;5.89;59.81;95373.81;10462979;28;1701;-71
2022/04/18 22:45:31;;;;;;;;;;;7.00;99.90;;;5.74;60.16;95368.38;10467805;28;1524;-70
2022/04/18 22:50:34;;;;;;;;;;;6.90;99.90;;;5.72;61.06;95367.78;10469202;28;1466;-70
2022/04/18 22:55:37;;;;;;;;;;;6.80;99.90;;;5.57;61.24;95362.34;10452649;28;1909;-68
2022/04/18 23:00:40;;;;;;;;;;;6.80;99.90;;;5.78;61.00;95356.13;10466208;28;1685;-70
2022/04/18 23:05:56;;;;;;;;;;;;;;;5.70;61.01;95353.91;10446789;28;1616;-70
2022/04/18 23:10:59;;;;;;;;;;;;;;;5.58;61.48;95346.06;10448101;28;1589;-70
2022/04/18 23:16:03;;;;;;;;;;;6.60;99.90;;;5.43;62.04;95338.75;10466543;28;1906;-69
2022/04/18 23:21:06;;;;;;;;;;;6.60;99.90;;;5.47;62.36;95332.91;10465431;28;1653;-70
2022/04/18 23:26:10;;;;;;;;;;;6.60;99.90;;;5.38;62.36;95330.69;10449584;28;1588;-70
2022/04/18 23:31:13;;;;;;;;;;;6.60;99.90;;;5.31;63.27;95326.63;10469880;28;1495;-70
2022/04/18 23:36:16;;;;;;;;;;;6.50;99.90;;;5.25;63.67;95315.09;10452453;28;1910;-69
2022/04/18 23:46:47;;;;;;;;;;;6.30;99.90;;;5.25;63.84;95304.44;10453286;28;1553;-70
2022/04/18 23:51:51;;;;;;;;;;;;;;;5.21;64.11;95307.84;10457856;28;1486;-71
2022/04/18 23:56:55;;;;;;;;;;;;;;;5.19;64.11;95300.13;10457766;28;1882;-70
